Time;durP1;ratioP1;P1;durP2;ratioP2;P2;SDS_P1;SDS_P2;PMS_P1;PMS_P2;Temp;Humidity;BMP_temperature;BMP_pressure;BME280_temperature;BME280_humidity;BME280_pressure;Samples;Min_cycle;Max_cycle;Signal;HPM_P1;HPM_P2
2021/01/26 00:05:01;;;;;;;9.00;8.20;;;4.70;41.30;;;;;;10464413;28;20251;-72
2021/01/26 00:10:06;;;;;;;9.30;8.50;;;4.70;41.20;;;;;;10460983;28;20237;-70
2021/01/26 00:15:10;;;;;;;9.17;8.37;;;4.70;41.30;;;;;;10468144;28;20760;-70
2021/01/26 00:20:14;;;;;;;10.03;9.03;;;4.60;41.40;;;;;;10462457;28;20219;-70
2021/01/26 00:25:19;;;;;;;9.20;8.40;;;4.70;41.60;;;;;;10463449;28;20613;-70
2021/01/26 00:30:24;;;;;;;11.50;10.40;;;4.70;41.70;;;;;;10460695;28;21059;-70
2021/01/26 00:35:28;;;;;;;10.03;9.13;;;4.70;41.80;;;;;;10462525;28;20731;-70
2021/01/26 00:40:32;;;;;;;9.47;8.57;;;4.60;41.70;;;;;;10450702;28;20225;-70
2021/01/26 00:45:34;;;;;;;9.60;8.80;;;4.60;41.70;;;;;;10457225;28;20244;-70
2021/01/26 00:50:37;;;;;;;11.03;10.03;;;4.60;41.60;;;;;;10452852;28;20304;-70
2021/01/26 00:55:40;;;;;;;10.30;9.40;;;4.60;41.60;;;;;;10467568;28;20224;-70
2021/01/26 01:00:42;;;;;;;12.00;10.90;;;4.60;41.70;;;;;;10454191;28;20221;-70
2021/01/26 01:05:44;;;;;;;12.67;11.37;;;4.70;41.50;;;;;;10464736;28;20311;-70
2021/01/26 01:10:52;;;;;;;12.63;11.47;;;4.60;41.70;;;;;;10450380;28;20229;-70
2021/01/26 01:15:54;;;;;;;12.50;11.23;;;4.60;42.30;;;;;;10468682;28;20241;-70
2021/01/26 01:20:56;;;;;;;11.93;10.83;;;4.50;41.90;;;;;;10476801;28;20750;-70
2021/01/26 01:26:01;;;;;;;11.60;10.50;;;4.50;41.70;;;;;;10469687;28;20225;-70
2021/01/26 01:31:03;;;;;;;10.03;9.10;;;4.40;41.70;;;;;;10460562;28;20223;-70
2021/01/26 01:36:06;;;;;;;8.97;8.17;;;4.40;41.50;;;;;;10465418;28;20235;-70
2021/01/26 01:41:10;;;;;;;10.37;9.37;;;4.30;41.20;;;;;;10466983;28;20252;-70
2021/01/26 01:46:16;;;;;;;9.33;8.53;;;4.30;41.30;;;;;;10464011;28;20262;-70
2021/01/26 01:51:23;;;;;;;9.60;8.47;;;4.20;41.30;;;;;;10463923;28;20224;-70
2021/01/26 01:56:32;;;;;;;9.43;8.57;;;4.20;41.20;;;;;;10468984;28;20231;-69
2021/01/26 02:01:34;;;;;;;9.33;8.50;;;4.20;41.30;;;;;;10470706;28;20258;-69
2021/01/26 02:06:40;;;;;;;8.30;7.57;;;4.20;41.00;;;;;;10460545;28;20724;-69
2021/01/26 02:11:44;;;;;;;7.50;6.80;;;4.10;40.80;;;;;;10467887;28;20225;-69
2021/01/26 02:16:59;;;;;;;8.30;7.50;;;4.10;40.80;;;;;;10467994;28;20233;-69
2021/01/26 02:22:43;;;;;;;8.47;7.67;;;4.10;40.90;;;;;;10463102;28;20639;-70
2021/01/26 02:28:27;;;;;;;7.40;6.80;;;4.10;40.60;;;;;;10471107;28;20224;-69
2021/01/26 02:34:18;;;;;;;7.37;6.70;;;4.00;40.50;;;;;;10467137;28;20222;-72
2021/01/26 02:39:52;;;;;;;7.87;6.87;;;3.90;40.40;;;;;;10402826;28;20220;-73
2021/01/26 02:45:13;;;;;;;6.83;6.13;;;3.80;40.50;;;;;;10462851;28;20786;-73
2021/01/26 02:50:25;;;;;;;7.63;6.93;;;3.80;40.50;;;;;;10471858;28;20220;-69
2021/01/26 02:55:33;;;;;;;6.73;6.13;;;3.70;40.50;;;;;;10464777;28;20853;-69
2021/01/26 03:00:37;;;;;;;7.23;6.53;;;3.70;40.50;;;;;;10456857;28;20231;-69
2021/01/26 03:05:44;;;;;;;6.77;6.17;;;3.70;40.40;;;;;;10462621;28;20221;-73
2021/01/26 03:10:57;;;;;;;6.33;5.83;;;3.70;40.50;;;;;;10464526;28;20237;-72
2021/01/26 03:16:03;;;;;;;6.80;6.20;;;3.70;40.60;;;;;;10463371;28;20511;-69
2021/01/26 03:21:07;;;;;;;6.77;6.17;;;3.80;40.70;;;;;;10460841;28;20257;-69
2021/01/26 03:26:16;;;;;;;7.07;6.47;;;3.80;40.60;;;;;;10461112;28;20256;-69
2021/01/26 03:31:23;;;;;;;7.57;6.87;;;3.80;40.70;;;;;;10463052;28;20241;-69
2021/01/26 03:36:25;;;;;;;8.70;7.87;;;3.80;40.70;;;;;;10461732;28;20228;-69
2021/01/26 03:41:29;;;;;;;8.77;7.97;;;3.80;40.50;;;;;;10457315;28;20228;-72
2021/01/26 03:46:50;;;;;;;9.20;8.40;;;3.80;40.60;;;;;;10454594;28;20225;-72
2021/01/26 03:52:20;;;;;;;9.53;8.63;;;3.80;40.70;;;;;;10452182;28;20248;-72
2021/01/26 03:57:41;;;;;;;9.77;8.80;;;3.80;40.60;;;;;;10452855;28;20227;-69
2021/01/26 04:03:06;;;;;;;10.13;9.13;;;3.70;40.50;;;;;;10457029;28;20235;-69
2021/01/26 04:08:15;;;;;;;9.77;8.87;;;3.70;40.70;;;;;;10455647;28;20227;-73
2021/01/26 04:13:22;;;;;;;10.23;9.23;;;3.70;40.60;;;;;;10460546;28;20231;-69
2021/01/26 04:18:29;;;;;;;10.27;9.30;;;3.60;40.70;;;;;;10450222;28;20235;-69
2021/01/26 04:23:32;;;;;;;9.83;8.93;;;3.50;40.80;;;;;;10462256;28;20227;-69
2021/01/26 04:28:39;;;;;;;9.83;8.83;;;3.40;40.90;;;;;;10460700;28;20228;-69
2021/01/26 04:33:44;;;;;;;9.37;8.47;;;3.40;41.00;;;;;;10448893;28;20225;-69
2021/01/26 04:38:46;;;;;;;8.93;8.10;;;3.40;40.80;;;;;;10465402;28;20231;-73
2021/01/26 04:44:02;;;;;;;9.80;8.80;;;3.40;40.90;;;;;;10460102;28;20229;-72
2021/01/26 04:49:15;;;;;;;9.27;8.37;;;3.40;40.90;;;;;;10456581;28;20228;-72
2021/01/26 04:54:33;;;;;;;8.00;7.30;;;3.40;40.70;;;;;;10478364;28;20598;-72
2021/01/26 04:59:57;;;;;;;8.43;7.60;;;3.40;40.80;;;;;;10461503;28;20224;-69
2021/01/26 05:05:03;;;;;;;8.73;7.93;;;3.40;40.80;;;;;;10467450;28;20226;-69
2021/01/26 05:10:09;;;;;;;8.20;7.40;;;3.40;40.70;;;;;;10465923;28;20216;-72
2021/01/26 05:15:19;;;;;;;8.17;7.47;;;3.40;41.40;;;;;;10471176;28;20227;-72
2021/01/26 05:20:26;;;;;;;7.03;6.43;;;3.40;40.70;;;;;;10475229;28;20228;-69
2021/01/26 05:25:28;;;;;;;7.50;6.80;;;3.40;40.70;;;;;;10466038;28;20254;-69
2021/01/26 05:30:37;;;;;;;7.50;6.80;;;3.40;40.70;;;;;;10466269;28;20247;-69
2021/01/26 05:35:44;;;;;;;8.00;7.30;;;3.40;40.80;;;;;;10468892;28;20723;-69
2021/01/26 05:40:52;;;;;;;8.60;7.80;;;3.40;40.90;;;;;;10469841;28;20221;-69
2021/01/26 05:45:58;;;;;;;8.30;7.47;;;3.30;41.10;;;;;;10465752;28;20247;-72
2021/01/26 05:51:17;;;;;;;8.53;7.77;;;3.30;41.20;;;;;;10469707;28;20231;-72
2021/01/26 05:56:22;;;;;;;8.47;7.67;;;3.30;41.30;;;;;;10463000;28;20225;-72
2021/01/26 06:01:32;;;;;;;8.57;7.80;;;3.40;41.40;;;;;;10464365;28;20221;-69
2021/01/26 06:06:52;;;;;;;8.23;7.40;;;3.30;41.30;;;;;;10466865;28;20312;-69
2021/01/26 06:12:09;;;;;;;10.80;9.70;;;3.40;41.40;;;;;;10462772;28;20232;-69
2021/01/26 06:17:19;;;;;;;7.93;7.13;;;3.40;41.40;;;;;;10470245;28;20227;-69
2021/01/26 06:22:25;;;;;;;7.97;7.27;;;3.40;41.40;;;;;;10471786;28;20228;-69
2021/01/26 06:27:52;;;;;;;8.50;7.77;;;3.40;41.30;;;;;;10460576;28;20228;-69
2021/01/26 06:33:33;;;;;;;8.70;7.90;;;3.50;41.50;;;;;;10458080;28;20260;-69
2021/01/26 06:39:02;;;;;;;8.80;7.90;;;3.40;41.40;;;;;;10459870;28;20217;-69
2021/01/26 06:44:23;;;;;;;7.87;7.07;;;3.30;41.40;;;;;;10462170;28;20238;-75
2021/01/26 06:49:41;;;;;;;7.97;7.17;;;3.30;41.80;;;;;;10472499;28;20623;-72
2021/01/26 06:54:58;;;;;;;7.03;6.33;;;3.20;41.90;;;;;;10467640;28;20220;-69
2021/01/26 07:00:21;;;;;;;7.53;6.83;;;3.20;41.80;;;;;;10460913;28;20216;-69
2021/01/26 07:05:38;;;;;;;6.60;5.90;;;3.20;41.90;;;;;;10465122;28;20233;-70
2021/01/26 07:11:06;;;;;;;7.10;6.33;;;3.20;42.10;;;;;;10463572;28;20247;-69
2021/01/26 07:16:25;;;;;;;6.43;5.60;;;3.20;42.00;;;;;;10464145;28;20230;-70
2021/01/26 07:21:40;;;;;;;6.43;5.83;;;3.20;41.90;;;;;;10465146;28;20220;-69
2021/01/26 07:27:20;;;;;;;5.40;4.90;;;3.20;41.90;;;;;;10460685;28;20228;-69
2021/01/26 07:32:30;;;;;;;6.67;6.00;;;3.30;41.30;;;;;;10455896;28;20229;-69
2021/01/26 07:37:40;;;;;;;5.63;5.13;;;3.30;41.50;;;;;;10463391;28;20723;-69
2021/01/26 07:42:55;;;;;;;6.00;5.50;;;3.30;41.30;;;;;;10455269;28;20225;-69
2021/01/26 07:48:04;;;;;;;6.67;5.97;;;3.30;41.30;;;;;;10460736;28;20234;-70
2021/01/26 07:53:15;;;;;;;6.93;5.73;;;3.30;41.70;;;;;;10465554;28;20232;-70
2021/01/26 07:58:18;;;;;;;6.17;5.53;;;3.40;41.80;;;;;;10468478;28;20231;-70
2021/01/26 08:03:23;;;;;;;6.37;5.60;;;3.40;41.70;;;;;;10463937;28;20303;-70
2021/01/26 08:08:29;;;;;;;5.50;4.97;;;3.40;41.80;;;;;;10461341;28;20220;-70
2021/01/26 08:13:35;;;;;;;5.50;4.90;;;3.50;41.90;;;;;;10464465;28;20569;-70
2021/01/26 08:18:39;;;;;;;8.43;5.73;;;3.40;41.80;;;;;;10459305;28;20236;-70
2021/01/26 08:23:42;;;;;;;5.40;4.90;;;3.40;42.00;;;;;;10464805;28;20697;-70
2021/01/26 08:28:48;;;;;;;5.40;4.90;;;3.40;42.20;;;;;;10454397;28;20240;-70
2021/01/26 08:33:53;;;;;;;6.83;5.40;;;3.50;42.50;;;;;;10458341;28;20297;-70
2021/01/26 08:39:00;;;;;;;5.70;5.10;;;3.40;42.30;;;;;;10469562;28;20224;-70
2021/01/26 08:44:04;;;;;;;5.60;5.10;;;3.30;42.30;;;;;;10459583;28;20216;-71
2021/01/26 08:49:20;;;;;;;5.10;4.70;;;3.30;42.40;;;;;;10453726;28;20217;-70
2021/01/26 08:54:39;;;;;;;5.13;4.63;;;3.30;43.50;;;;;;10449658;28;20238;-70
2021/01/26 08:59:43;;;;;;;4.97;4.47;;;3.30;43.00;;;;;;10456948;28;20696;-70
2021/01/26 09:04:46;;;;;;;5.63;5.10;;;3.30;42.40;;;;;;10467660;28;20687;-70
2021/01/26 09:09:53;;;;;;;5.57;5.00;;;3.30;42.40;;;;;;10461724;28;20312;-70
2021/01/26 09:15:00;;;;;;;6.10;5.43;;;3.40;42.70;;;;;;10456756;28;20335;-70
2021/01/26 09:20:10;;;;;;;6.70;4.10;;;3.40;42.70;;;;;;10454367;28;20225;-71
2021/01/26 09:25:15;;;;;;;5.07;3.80;;;3.50;42.60;;;;;;10458343;28;20220;-70
2021/01/26 09:30:22;;;;;;;4.47;4.07;;;3.50;42.40;;;;;;10461264;28;20231;-70
2021/01/26 09:35:28;;;;;;;4.17;3.77;;;3.60;42.50;;;;;;10465192;28;20311;-70
2021/01/26 09:40:32;;;;;;;4.03;3.63;;;3.70;42.30;;;;;;10472580;28;20742;-70
2021/01/26 09:45:36;;;;;;;6.07;3.87;;;3.80;42.40;;;;;;10476901;28;20228;-70
2021/01/26 09:50:38;;;;;;;3.83;3.40;;;3.80;42.40;;;;;;10466208;28;20229;-73
2021/01/26 09:55:41;;;;;;;8.80;5.40;;;3.90;42.30;;;;;;10479650;28;20256;-73
2021/01/26 10:00:44;;;;;;;4.40;3.70;;;3.90;42.30;;;;;;10466346;28;20231;-73
2021/01/26 10:05:47;;;;;;;4.60;4.20;;;4.00;42.30;;;;;;10467719;28;20224;-74
2021/01/26 10:10:50;;;;;;;3.80;3.40;;;4.10;42.10;;;;;;10459628;28;20323;-75
2021/01/26 10:15:54;;;;;;;4.93;3.43;;;4.10;42.00;;;;;;10472330;28;20221;-75
2021/01/26 10:20:59;;;;;;;4.43;3.80;;;4.10;42.00;;;;;;10472769;28;20216;-75
2021/01/26 10:26:11;;;;;;;3.67;3.30;;;4.10;42.30;;;;;;10471740;28;20224;-74
2021/01/26 10:31:19;;;;;;;4.73;3.67;;;4.10;42.30;;;;;;10469465;28;20243;-74
2021/01/26 10:36:31;;;;;;;5.07;3.47;;;4.10;42.00;;;;;;10472045;28;20239;-74
2021/01/26 10:41:38;;;;;;;3.10;2.70;;;4.10;42.00;;;;;;10464686;28;20248;-75
2021/01/26 10:46:44;;;;;;;3.20;2.37;;;4.20;42.40;;;;;;10465364;28;20233;-75
2021/01/26 10:51:46;;;;;;;3.73;3.20;;;4.20;42.10;;;;;;10469634;28;20228;-75
2021/01/26 10:56:48;;;;;;;3.93;3.53;;;4.30;42.20;;;;;;10468820;28;20644;-75
2021/01/26 11:01:52;;;;;;;3.50;3.20;;;4.20;42.10;;;;;;10466479;28;20712;-75
2021/01/26 11:06:54;;;;;;;3.20;2.90;;;4.20;42.40;;;;;;10468548;28;20775;-75
2021/01/26 11:11:57;;;;;;;6.67;3.30;;;4.20;42.30;;;;;;10472409;28;20246;-75
2021/01/26 11:17:00;;;;;;;3.13;2.80;;;4.20;42.30;;;;;;10471723;28;20254;-75
2021/01/26 11:22:02;;;;;;;4.47;3.10;;;4.20;42.30;;;;;;10470991;27;20224;-75
2021/01/26 11:27:05;;;;;;;6.37;3.70;;;4.30;42.40;;;;;;10465676;27;20228;-75
2021/01/26 11:32:08;;;;;;;3.47;2.90;;;4.30;42.20;;;;;;10473046;27;20252;-75
2021/01/26 11:37:10;;;;;;;3.83;2.90;;;4.30;42.20;;;;;;10458691;28;20654;-75
2021/01/26 11:42:13;;;;;;;3.40;2.67;;;4.40;42.20;;;;;;10477937;27;20245;-74
2021/01/26 11:47:19;;;;;;;3.87;3.27;;;4.40;42.20;;;;;;10470233;27;20220;-74
2021/01/26 11:52:22;;;;;;;3.93;3.03;;;4.50;42.30;;;;;;10481188;27;20244;-75
2021/01/26 11:57:24;;;;;;;3.60;3.03;;;4.50;42.30;;;;;;10477972;27;20230;-75
2021/01/26 12:02:28;;;;;;;3.97;3.43;;;4.60;42.10;;;;;;10458385;28;20307;-75
2021/01/26 12:07:31;;;;;;;5.87;3.30;;;4.70;42.00;;;;;;10473621;27;20778;-74
2021/01/26 12:12:34;;;;;;;3.80;3.40;;;4.70;41.90;;;;;;10457644;28;20248;-74
2021/01/26 12:17:37;;;;;;;3.70;3.40;;;4.70;41.70;;;;;;10466919;27;20239;-75
2021/01/26 12:22:40;;;;;;;3.93;3.30;;;4.70;41.70;;;;;;10472159;27;20228;-72
2021/01/26 12:27:43;;;;;;;4.13;3.73;;;4.70;41.70;;;;;;10465418;27;20751;-75
2021/01/26 12:32:47;;;;;;;5.17;3.57;;;4.70;41.70;;;;;;10467416;28;20237;-74
2021/01/26 12:37:49;;;;;;;4.03;3.47;;;4.70;41.50;;;;;;10465341;28;20262;-74
2021/01/26 12:42:51;;;;;;;3.73;3.43;;;4.70;41.70;;;;;;10463474;27;20225;-74
2021/01/26 12:47:55;;;;;;;4.50;3.33;;;4.70;41.70;;;;;;10471723;27;20595;-74
2021/01/26 12:52:58;;;;;;;3.53;3.23;;;4.70;41.80;;;;;;10469618;27;20252;-70
2021/01/26 12:58:00;;;;;;;3.93;3.63;;;4.70;41.70;;;;;;10472636;27;20237;-72
2021/01/26 13:03:04;;;;;;;4.17;3.47;;;4.70;41.80;;;;;;10471844;28;20312;-71
2021/01/26 13:08:06;;;;;;;3.57;3.17;;;4.70;41.60;;;;;;10487979;27;20229;-68
2021/01/26 13:13:08;;;;;;;3.40;3.10;;;4.70;41.60;;;;;;10486279;27;20244;-68
2021/01/26 13:18:12;;;;;;;3.40;3.10;;;4.70;41.70;;;;;;10471851;28;20231;-68
2021/01/26 13:23:14;;;;;;;4.40;3.40;;;4.70;41.70;;;;;;10490998;28;20252;-71
2021/01/26 13:28:16;;;;;;;3.93;3.07;;;4.70;41.70;;;;;;10488492;28;20607;-71
2021/01/26 13:33:19;;;;;;;4.97;3.93;;;4.70;41.80;;;;;;10483957;28;20323;-71
2021/01/26 13:38:23;;;;;;;4.03;3.70;;;4.70;41.90;;;;;;10497354;28;20255;-72
2021/01/26 13:43:25;;;;;;;4.60;4.10;;;4.70;42.00;;;;;;10477546;28;20223;-71
2021/01/26 13:48:28;;;;;;;4.20;3.60;;;4.70;42.00;;;;;;10490231;28;20595;-71
2021/01/26 13:53:31;;;;;;;4.63;3.60;;;4.60;41.90;;;;;;10480717;28;20220;-71
2021/01/26 13:58:33;;;;;;;4.53;4.03;;;4.60;42.10;;;;;;10496643;28;20228;-71
2021/01/26 14:03:39;;;;;;;6.90;4.73;;;4.60;42.00;;;;;;10477091;28;20311;-71
2021/01/26 14:08:42;;;;;;;5.77;3.87;;;4.60;42.20;;;;;;10496134;28;20311;-71
2021/01/26 14:13:44;;;;;;;4.30;3.90;;;4.70;42.20;;;;;;10472232;28;20263;-71
2021/01/26 14:18:48;;;;;;;5.10;4.07;;;4.70;42.40;;;;;;10491665;28;20236;-71
2021/01/26 14:23:50;;;;;;;4.20;3.80;;;4.70;42.50;;;;;;10494968;28;20301;-71
2021/01/26 14:28:52;;;;;;;5.10;3.77;;;4.60;42.30;;;;;;10486136;28;20695;-72
2021/01/26 14:33:55;;;;;;;4.53;3.50;;;4.60;42.40;;;;;;10466544;28;20225;-71
2021/01/26 14:38:58;;;;;;;5.70;3.77;;;4.60;42.40;;;;;;10480529;28;20326;-71
2021/01/26 14:44:00;;;;;;;5.47;3.30;;;4.60;42.40;;;;;;10477296;28;20216;-72
2021/01/26 14:49:03;;;;;;;3.83;3.13;;;4.60;42.40;;;;;;10487820;28;20748;-70
2021/01/26 14:54:06;;;;;;;5.60;3.50;;;4.60;42.40;;;;;;10475790;28;20220;-71
2021/01/26 14:59:08;;;;;;;4.33;3.27;;;4.60;42.40;;;;;;10473667;28;20482;-70
2021/01/26 15:04:11;;;;;;;3.73;3.30;;;4.60;42.40;;;;;;10484859;28;20239;-71
2021/01/26 15:09:15;;;;;;;4.10;2.90;;;4.60;42.40;;;;;;10474686;28;20235;-71
2021/01/26 15:14:18;;;;;;;3.00;2.70;;;4.60;42.40;;;;;;10475067;28;20607;-70
2021/01/26 15:19:21;;;;;;;3.67;2.77;;;4.50;42.30;;;;;;10486426;28;20220;-71
2021/01/26 15:24:23;;;;;;;4.03;2.70;;;4.60;42.40;;;;;;10486705;28;20224;-71
2021/01/26 15:29:26;;;;;;;3.30;3.00;;;4.60;42.40;;;;;;10481590;28;20228;-71
2021/01/26 15:34:29;;;;;;;4.30;3.40;;;4.60;42.40;;;;;;10478223;28;20255;-70
2021/01/26 15:39:32;;;;;;;3.30;2.63;;;4.60;42.40;;;;;;10482460;28;20281;-71
2021/01/26 15:44:34;;;;;;;3.97;2.80;;;4.60;42.40;;;;;;10478533;28;20216;-71
2021/01/26 15:49:37;;;;;;;3.63;2.70;;;4.60;42.40;;;;;;10482677;28;20307;-71
2021/01/26 15:54:40;;;;;;;5.43;2.53;;;4.60;42.40;;;;;;10486967;28;20225;-71
2021/01/26 15:59:42;;;;;;;3.27;2.47;;;4.60;42.20;;;;;;10487303;28;20271;-70
2021/01/26 16:04:45;;;;;;;3.77;2.63;;;4.70;42.20;;;;;;10486869;28;20238;-71
2021/01/26 16:09:47;;;;;;;3.63;2.40;;;4.70;42.00;;;;;;10469157;28;20252;-71
2021/01/26 16:14:49;;;;;;;7.43;4.60;;;4.70;42.00;;;;;;10482710;28;20700;-71
2021/01/26 16:19:53;;;;;;;4.50;3.17;;;4.70;42.10;;;;;;10485902;28;20307;-71
2021/01/26 16:24:55;;;;;;;6.20;3.97;;;4.70;42.10;;;;;;10479932;28;20231;-73
2021/01/26 16:29:57;;;;;;;4.60;2.97;;;4.70;42.10;;;;;;10488179;28;20244;-73
2021/01/26 16:35:01;;;;;;;6.13;3.53;;;4.60;42.00;;;;;;10489443;28;20224;-73
2021/01/26 16:40:07;;;;;;;3.67;2.57;;;4.60;42.30;;;;;;10481507;28;20238;-73
2021/01/26 16:45:10;;;;;;;4.37;2.80;;;4.60;42.40;;;;;;10474821;28;20224;-73
2021/01/26 16:50:17;;;;;;;3.67;2.93;;;4.70;42.20;;;;;;10484699;28;20235;-73
2021/01/26 16:55:19;;;;;;;3.23;2.60;;;4.70;42.30;;;;;;10477369;28;20237;-73
2021/01/26 17:00:24;;;;;;;3.73;2.37;;;4.70;42.00;;;;;;10474029;28;20232;-73
2021/01/26 17:05:45;;;;;;;3.43;2.77;;;4.60;42.00;;;;;;10485001;28;20252;-73
2021/01/26 17:10:49;;;;;;;3.40;2.80;;;4.60;42.10;;;;;;10477090;28;20229;-74
2021/01/26 17:15:52;;;;;;;2.93;2.60;;;4.60;42.40;;;;;;10479488;28;20648;-73
2021/01/26 17:20:56;;;;;;;3.67;2.73;;;4.60;42.30;;;;;;10484715;28;20228;-71
2021/01/26 17:25:58;;;;;;;2.90;2.67;;;4.50;42.30;;;;;;10478987;28;20902;-71
2021/01/26 17:31:01;;;;;;;2.70;2.43;;;4.60;42.40;;;;;;10478542;28;20230;-72
2021/01/26 17:36:06;;;;;;;3.23;2.80;;;4.60;42.00;;;;;;10469801;28;20413;-70
2021/01/26 17:41:08;;;;;;;4.17;2.97;;;4.60;41.90;;;;;;10471796;28;20228;-71
2021/01/26 17:46:10;;;;;;;4.30;3.00;;;4.70;42.20;;;;;;10471950;28;20229;-71
2021/01/26 17:51:13;;;;;;;3.90;2.83;;;4.70;41.90;;;;;;10469418;28;20228;-71
2021/01/26 17:56:16;;;;;;;4.50;3.60;;;4.80;41.70;;;;;;10489669;28;20750;-71
2021/01/26 18:01:18;;;;;;;5.77;3.33;;;4.90;41.80;;;;;;10475773;28;20224;-71
2021/01/26 18:06:21;;;;;;;3.70;2.70;;;4.90;41.80;;;;;;10479745;28;20228;-71
2021/01/26 18:11:25;;;;;;;3.77;3.37;;;4.90;41.70;;;;;;10470632;28;20587;-71
2021/01/26 18:16:27;;;;;;;4.43;3.33;;;4.90;41.90;;;;;;10479417;28;20639;-71
2021/01/26 18:21:31;;;;;;;4.37;3.30;;;4.90;42.00;;;;;;10472832;28;20779;-71
2021/01/26 18:26:33;;;;;;;3.30;2.93;;;4.80;42.40;;;;;;10474781;28;20307;-72
2021/01/26 18:31:36;;;;;;;7.13;3.50;;;4.80;42.60;;;;;;10477772;28;20709;-72
2021/01/26 18:36:40;;;;;;;5.03;3.07;;;4.70;42.50;;;;;;10481145;28;20897;-72
2021/01/26 18:41:43;;;;;;;4.80;3.37;;;4.60;42.40;;;;;;10476876;28;20227;-72
2021/01/26 18:46:46;;;;;;;3.57;2.90;;;4.60;42.40;;;;;;10475647;28;20234;-72
2021/01/26 18:51:50;;;;;;;3.00;2.70;;;4.60;42.40;;;;;;10482353;28;20724;-72
2021/01/26 18:56:52;;;;;;;4.57;3.00;;;4.60;42.40;;;;;;10480166;28;20236;-72
2021/01/26 19:01:56;;;;;;;3.70;2.70;;;4.60;42.40;;;;;;10472485;28;20708;-72
2021/01/26 19:06:59;;;;;;;4.37;3.10;;;4.60;42.50;;;;;;10467981;28;20485;-72
2021/01/26 19:12:02;;;;;;;3.70;2.70;;;4.60;42.70;;;;;;10477873;28;20688;-72
2021/01/26 19:17:04;;;;;;;4.73;3.23;;;4.60;42.40;;;;;;10473327;28;20229;-72
2021/01/26 19:22:07;;;;;;;4.30;3.20;;;4.60;42.50;;;;;;10475573;28;20224;-72
2021/01/26 19:27:10;;;;;;;4.53;2.87;;;4.60;42.40;;;;;;10468288;28;20251;-72
2021/01/26 19:32:12;;;;;;;5.50;3.10;;;4.60;42.40;;;;;;10467938;28;20720;-72
2021/01/26 19:37:16;;;;;;;4.30;2.80;;;4.60;42.40;;;;;;10463790;28;20224;-72
2021/01/26 19:42:19;;;;;;;3.30;3.00;;;4.60;42.70;;;;;;10464353;28;20609;-72
2021/01/26 19:47:21;;;;;;;3.57;2.90;;;4.60;42.40;;;;;;10466874;28;20236;-72
2021/01/26 19:52:24;;;;;;;3.00;2.70;;;4.60;42.40;;;;;;10465827;28;20285;-72
2021/01/26 19:57:26;;;;;;;3.30;2.67;;;4.60;42.40;;;;;;10464968;28;20239;-72
2021/01/26 20:02:29;;;;;;;3.50;2.80;;;4.50;42.50;;;;;;10465658;28;20662;-72
2021/01/26 20:07:32;;;;;;;4.77;2.87;;;4.50;42.40;;;;;;10458557;28;20228;-72
2021/01/26 20:12:35;;;;;;;4.80;2.80;;;4.50;42.40;;;;;;10464258;28;20235;-73
2021/01/26 20:17:37;;;;;;;3.07;2.60;;;4.60;42.40;;;;;;10464444;28;20231;-72
2021/01/26 20:22:41;;;;;;;3.03;2.50;;;4.60;42.40;;;;;;10463102;28;20244;-72
2021/01/26 20:27:44;;;;;;;3.40;2.67;;;4.60;42.40;;;;;;10463767;28;20636;-72
2021/01/26 20:32:47;;;;;;;3.27;2.63;;;4.60;42.40;;;;;;10461746;28;20228;-72
2021/01/26 20:37:50;;;;;;;3.03;2.53;;;4.60;42.40;;;;;;10463943;28;20231;-71
2021/01/26 20:42:52;;;;;;;3.50;2.60;;;4.60;43.10;;;;;;10462074;28;20233;-72
2021/01/26 20:47:56;;;;;;;2.67;2.47;;;4.60;42.40;;;;;;10462667;28;20245;-71
2021/01/26 20:53:00;;;;;;;2.77;2.27;;;4.60;42.40;;;;;;10460952;28;20704;-71
2021/01/26 20:58:02;;;;;;;4.13;2.27;;;4.60;42.40;;;;;;10464447;28;20243;-71
2021/01/26 21:03:06;;;;;;;2.37;2.17;;;4.60;42.40;;;;;;10464448;28;20235;-70
2021/01/26 21:08:09;;;;;;;3.03;2.67;;;4.60;42.40;;;;;;10464355;28;20727;-69
2021/01/26 21:13:12;;;;;;;3.03;2.67;;;4.60;42.40;;;;;;10464628;28;20294;-69
2021/01/26 21:18:14;;;;;;;2.60;2.40;;;4.60;42.40;;;;;;10464138;28;20532;-69
2021/01/26 21:23:18;;;;;;;2.57;1.97;;;4.60;42.30;;;;;;10463773;28;20275;-69
2021/01/26 21:28:21;;;;;;;2.50;2.30;;;4.60;42.40;;;;;;10463503;28;21197;-69
2021/01/26 21:33:24;;;;;;;3.10;2.60;;;4.70;42.40;;;;;;10458522;28;20232;-69
2021/01/26 21:38:27;;;;;;;2.63;2.43;;;4.70;42.20;;;;;;10462760;28;20604;-69
2021/01/26 21:43:30;;;;;;;2.73;2.50;;;4.70;42.30;;;;;;10465004;28;20233;-69
2021/01/26 21:48:32;;;;;;;2.57;2.37;;;4.70;42.30;;;;;;10467936;28;20659;-69
2021/01/26 21:53:35;;;;;;;4.10;2.50;;;4.70;42.10;;;;;;10465374;28;20263;-69
2021/01/26 21:58:38;;;;;;;2.60;2.40;;;4.70;42.10;;;;;;10461963;28;20647;-71
2021/01/26 22:03:40;;;;;;;2.87;2.40;;;4.80;42.10;;;;;;10458760;28;20485;-70
2021/01/26 22:08:43;;;;;;;3.33;2.53;;;4.70;42.00;;;;;;10451319;28;20233;-70
2021/01/26 22:13:45;;;;;;;3.10;2.80;;;4.70;42.10;;;;;;10468721;28;20231;-71
2021/01/26 22:18:47;;;;;;;3.13;2.60;;;4.70;42.20;;;;;;10463242;28;20233;-71
2021/01/26 22:23:51;;;;;;;3.13;2.93;;;4.70;42.30;;;;;;10467293;28;20247;-71
2021/01/26 22:28:53;;;;;;;3.30;2.97;;;4.60;42.40;;;;;;10468308;28;20291;-71
2021/01/26 22:33:55;;;;;;;3.83;2.67;;;4.60;42.40;;;;;;10467975;28;20231;-70
2021/01/26 22:38:58;;;;;;;3.60;3.30;;;4.70;42.50;;;;;;10474234;28;20591;-71
2021/01/26 22:44:01;;;;;;;3.53;2.80;;;4.60;42.40;;;;;;10468742;28;20739;-71
2021/01/26 22:49:04;;;;;;;3.40;3.07;;;4.60;42.40;;;;;;10464806;28;20229;-72
2021/01/26 22:54:07;;;;;;;3.33;3.03;;;4.60;42.40;;;;;;10468347;28;20259;-71
2021/01/26 22:59:09;;;;;;;3.37;3.07;;;4.60;42.40;;;;;;10467402;28;20298;-71
2021/01/26 23:04:11;;;;;;;3.73;3.17;;;4.60;42.40;;;;;;10471388;28;20228;-71
2021/01/26 23:09:17;;;;;;;4.17;3.13;;;4.60;42.40;;;;;;10465978;28;20701;-71
2021/01/26 23:14:19;;;;;;;3.70;3.40;;;4.70;42.50;;;;;;10467058;28;20231;-71
2021/01/26 23:19:21;;;;;;;3.70;3.40;;;4.70;42.50;;;;;;10469751;28;20236;-71
2021/01/26 23:24:25;;;;;;;4.23;3.50;;;4.60;42.40;;;;;;10468020;28;20225;-71
2021/01/26 23:29:27;;;;;;;3.67;3.30;;;4.60;42.40;;;;;;10466417;28;20238;-71
2021/01/26 23:34:30;;;;;;;3.87;3.43;;;4.50;42.30;;;;;;10477577;28;20575;-71
2021/01/26 23:39:33;;;;;;;4.10;3.70;;;4.50;42.30;;;;;;10479263;28;20224;-71
2021/01/26 23:44:35;;;;;;;4.10;3.57;;;4.50;42.30;;;;;;10474673;28;20229;-71
2021/01/26 23:49:37;;;;;;;3.93;3.57;;;4.50;42.40;;;;;;10465292;28;20247;-71
2021/01/26 23:54:42;;;;;;;5.10;3.93;;;4.50;42.40;;;;;;10448397;28;20229;-71
2021/01/26 23:59:44;;;;;;;3.97;3.30;;;4.40;42.60;;;;;;10457282;28;20320;-71
